sensor_id;sensor_type;location;lat;lon;timestamp;temperature;humidity
18729;DHT22;9493;51.884;5.188;2023-05-07T00:02:04;13.90;99.90
18729;DHT22;9493;51.884;5.188;2023-05-07T00:04:30;14.00;99.90
18729;DHT22;9493;51.884;5.188;2023-05-07T00:07:02;14.00;99.90
18729;DHT22;9493;51.884;5.188;2023-05-07T00:09:29;13.90;99.90
18729;DHT22;9493;51.884;5.188;2023-05-07T00:11:55;14.00;99.90
18729;DHT22;9493;51.884;5.188;2023-05-07T00:14:24;14.00;99.90
18729;DHT22;9493;51.884;5.188;2023-05-07T00:16:51;14.10;99.90
18729;DHT22;9493;51.884;5.188;2023-05-07T00:19:17;14.00;99.90
18729;DHT22;9493;51.884;5.188;2023-05-07T00:21:44;14.10;99.90
18729;DHT22;9493;51.884;5.188;2023-05-07T00:24:11;14.10;99.90
18729;DHT22;9493;51.884;5.188;2023-05-07T00:26:38;14.10;99.90
18729;DHT22;9493;51.884;5.188;2023-05-07T00:29:04;14.00;99.90
18729;DHT22;9493;51.884;5.188;2023-05-07T00:31:32;14.00;99.90
18729;DHT22;9493;51.884;5.188;2023-05-07T00:33:59;14.10;99.90
18729;DHT22;9493;51.884;5.188;2023-05-07T00:36:26;14.10;99.90
18729;DHT22;9493;51.884;5.188;2023-05-07T00:38:53;14.10;99.90
18729;DHT22;9493;51.884;5.188;2023-05-07T00:41:21;14.10;99.90
18729;DHT22;9493;51.884;5.188;2023-05-07T00:43:48;14.10;99.90
18729;DHT22;9493;51.884;5.188;2023-05-07T00:46:17;14.10;99.90
18729;DHT22;9493;51.884;5.188;2023-05-07T00:48:45;14.10;99.90
18729;DHT22;9493;51.884;5.188;2023-05-07T00:51:12;14.10;99.90
18729;DHT22;9493;51.884;5.188;2023-05-07T00:53:39;14.10;99.90
18729;DHT22;9493;51.884;5.188;2023-05-07T00:56:06;14.10;99.90
18729;DHT22;9493;51.884;5.188;2023-05-07T00:58:33;14.10;99.90
18729;DHT22;9493;51.884;5.188;2023-05-07T01:01:00;14.20;99.90
18729;DHT22;9493;51.884;5.188;2023-05-07T01:03:27;14.10;99.90
18729;DHT22;9493;51.884;5.188;2023-05-07T01:05:56;14.10;99.90
18729;DHT22;9493;51.884;5.188;2023-05-07T01:08:24;14.10;99.90
18729;DHT22;9493;51.884;5.188;2023-05-07T01:10:54;14.10;99.90
18729;DHT22;9493;51.884;5.188;2023-05-07T01:13:21;14.10;99.90
18729;DHT22;9493;51.884;5.188;2023-05-07T01:15:49;14.10;99.90
18729;DHT22;9493;51.884;5.188;2023-05-07T01:18:15;14.10;99.90
18729;DHT22;9493;51.884;5.188;2023-05-07T01:20:42;14.10;99.90
18729;DHT22;9493;51.884;5.188;2023-05-07T01:23:11;14.10;99.90
18729;DHT22;9493;51.884;5.188;2023-05-07T01:25:38;14.10;99.90
18729;DHT22;9493;51.884;5.188;2023-05-07T01:28:04;14.20;99.90
18729;DHT22;9493;51.884;5.188;2023-05-07T01:30:32;14.10;99.90
18729;DHT22;9493;51.884;5.188;2023-05-07T01:33:03;14.10;99.90
18729;DHT22;9493;51.884;5.188;2023-05-07T01:35:34;14.20;99.90
18729;DHT22;9493;51.884;5.188;2023-05-07T01:38:03;14.20;99.90
18729;DHT22;9493;51.884;5.188;2023-05-07T01:40:33;14.20;99.90
18729;DHT22;9493;51.884;5.188;2023-05-07T01:43:01;14.20;99.90
18729;DHT22;9493;51.884;5.188;2023-05-07T01:45:28;14.30;99.90
18729;DHT22;9493;51.884;5.188;2023-05-07T01:47:57;14.20;99.90
18729;DHT22;9493;51.884;5.188;2023-05-07T01:50:25;14.20;99.90
18729;DHT22;9493;51.884;5.188;2023-05-07T01:52:52;14.20;99.90
18729;DHT22;9493;51.884;5.188;2023-05-07T01:55:19;14.20;99.90
18729;DHT22;9493;51.884;5.188;2023-05-07T01:57:47;14.30;99.90
18729;DHT22;9493;51.884;5.188;2023-05-07T02:00:14;14.20;99.90
18729;DHT22;9493;51.884;5.188;2023-05-07T02:02:41;14.20;99.90
18729;DHT22;9493;51.884;5.188;2023-05-07T02:05:08;14.20;99.90
18729;DHT22;9493;51.884;5.188;2023-05-07T02:07:35;14.30;99.90
18729;DHT22;9493;51.884;5.188;2023-05-07T02:10:02;14.20;99.90
18729;DHT22;9493;51.884;5.188;2023-05-07T02:12:29;14.20;99.90
18729;DHT22;9493;51.884;5.188;2023-05-07T02:14:57;14.20;99.90
18729;DHT22;9493;51.884;5.188;2023-05-07T02:17:24;14.20;99.90
18729;DHT22;9493;51.884;5.188;2023-05-07T02:19:51;14.20;99.90
18729;DHT22;9493;51.884;5.188;2023-05-07T02:22:18;14.20;99.90
18729;DHT22;9493;51.884;5.188;2023-05-07T02:24:45;14.20;99.90
18729;DHT22;9493;51.884;5.188;2023-05-07T02:27:11;14.20;99.90
18729;DHT22;9493;51.884;5.188;2023-05-07T02:29:38;14.20;99.90
18729;DHT22;9493;51.884;5.188;2023-05-07T02:32:06;14.20;99.90
18729;DHT22;9493;51.884;5.188;2023-05-07T02:34:33;14.20;99.90
18729;DHT22;9493;51.884;5.188;2023-05-07T02:37:00;14.10;99.90
18729;DHT22;9493;51.884;5.188;2023-05-07T02:39:26;14.10;99.90
18729;DHT22;9493;51.884;5.188;2023-05-07T02:41:53;14.10;99.90
18729;DHT22;9493;51.884;5.188;2023-05-07T02:44:20;14.10;99.90
18729;DHT22;9493;51.884;5.188;2023-05-07T02:46:47;14.10;99.90
18729;DHT22;9493;51.884;5.188;2023-05-07T02:49:15;14.10;99.90
18729;DHT22;9493;51.884;5.188;2023-05-07T02:51:41;14.20;99.90
18729;DHT22;9493;51.884;5.188;2023-05-07T02:54:08;14.10;99.90
18729;DHT22;9493;51.884;5.188;2023-05-07T02:56:35;14.10;99.90
18729;DHT22;9493;51.884;5.188;2023-05-07T02:59:02;14.10;99.90
18729;DHT22;9493;51.884;5.188;2023-05-07T03:01:28;14.00;99.90
18729;DHT22;9493;51.884;5.188;2023-05-07T03:03:55;14.00;99.90
18729;DHT22;9493;51.884;5.188;2023-05-07T03:06:23;14.00;99.90
18729;DHT22;9493;51.884;5.188;2023-05-07T03:08:51;13.90;99.90
18729;DHT22;9493;51.884;5.188;2023-05-07T03:11:18;13.90;99.90
18729;DHT22;9493;51.884;5.188;2023-05-07T03:13:45;13.90;99.90
18729;DHT22;9493;51.884;5.188;2023-05-07T03:16:12;14.00;99.90
18729;DHT22;9493;51.884;5.188;2023-05-07T03:18:38;13.80;99.90
18729;DHT22;9493;51.884;5.188;2023-05-07T03:21:05;13.80;99.90
18729;DHT22;9493;51.884;5.188;2023-05-07T03:23:33;13.80;99.90
18729;DHT22;9493;51.884;5.188;2023-05-07T03:26:01;13.80;99.90
18729;DHT22;9493;51.884;5.188;2023-05-07T03:28:28;13.80;99.90
18729;DHT22;9493;51.884;5.188;2023-05-07T03:30:54;13.80;99.90
18729;DHT22;9493;51.884;5.188;2023-05-07T03:33:21;13.70;99.90
18729;DHT22;9493;51.884;5.188;2023-05-07T03:35:48;13.70;99.90
18729;DHT22;9493;51.884;5.188;2023-05-07T03:38:15;13.70;99.90
18729;DHT22;9493;51.884;5.188;2023-05-07T03:40:43;13.70;99.90
18729;DHT22;9493;51.884;5.188;2023-05-07T03:43:10;13.70;99.90
18729;DHT22;9493;51.884;5.188;2023-05-07T03:45:36;13.80;99.90
18729;DHT22;9493;51.884;5.188;2023-05-07T03:48:04;13.80;99.90
18729;DHT22;9493;51.884;5.188;2023-05-07T03:50:31;13.80;99.90
18729;DHT22;9493;51.884;5.188;2023-05-07T03:52:57;13.80;99.90
18729;DHT22;9493;51.884;5.188;2023-05-07T03:55:24;13.80;99.90
18729;DHT22;9493;51.884;5.188;2023-05-07T03:57:52;13.70;99.90
18729;DHT22;9493;51.884;5.188;2023-05-07T04:00:19;13.70;99.90
18729;DHT22;9493;51.884;5.188;2023-05-07T04:02:47;13.70;99.90
18729;DHT22;9493;51.884;5.188;2023-05-07T04:05:14;13.80;99.90
18729;DHT22;9493;51.884;5.188;2023-05-07T04:07:41;13.80;99.90
18729;DHT22;9493;51.884;5.188;2023-05-07T04:10:08;13.70;99.90
18729;DHT22;9493;51.884;5.188;2023-05-07T04:12:35;13.80;99.90
18729;DHT22;9493;51.884;5.188;2023-05-07T04:15:04;13.80;99.90
18729;DHT22;9493;51.884;5.188;2023-05-07T04:17:31;13.80;99.90
18729;DHT22;9493;51.884;5.188;2023-05-07T04:19:57;13.80;99.90
18729;DHT22;9493;51.884;5.188;2023-05-07T04:22:24;13.80;99.90
18729;DHT22;9493;51.884;5.188;2023-05-07T04:24:51;13.90;99.90
18729;DHT22;9493;51.884;5.188;2023-05-07T04:27:18;13.90;99.90
18729;DHT22;9493;51.884;5.188;2023-05-07T04:29:45;13.90;99.90
18729;DHT22;9493;51.884;5.188;2023-05-07T04:32:14;13.90;99.90
18729;DHT22;9493;51.884;5.188;2023-05-07T04:34:41;13.90;99.90
18729;DHT22;9493;51.884;5.188;2023-05-07T04:37:08;14.00;99.90
18729;DHT22;9493;51.884;5.188;2023-05-07T04:39:34;13.90;99.90
18729;DHT22;9493;51.884;5.188;2023-05-07T04:42:01;14.00;99.90
18729;DHT22;9493;51.884;5.188;2023-05-07T04:44:28;14.00;99.90
18729;DHT22;9493;51.884;5.188;2023-05-07T04:46:56;14.00;99.90
18729;DHT22;9493;51.884;5.188;2023-05-07T04:49:24;14.00;99.90
18729;DHT22;9493;51.884;5.188;2023-05-07T04:51:51;14.10;99.90
18729;DHT22;9493;51.884;5.188;2023-05-07T04:54:18;14.10;99.90
18729;DHT22;9493;51.884;5.188;2023-05-07T04:56:45;14.10;99.90
18729;DHT22;9493;51.884;5.188;2023-05-07T04:59:11;14.10;99.90
18729;DHT22;9493;51.884;5.188;2023-05-07T05:01:38;14.10;99.90
18729;DHT22;9493;51.884;5.188;2023-05-07T05:04:05;14.10;99.90
18729;DHT22;9493;51.884;5.188;2023-05-07T05:06:33;14.10;99.90
18729;DHT22;9493;51.884;5.188;2023-05-07T05:09:00;14.20;99.90
18729;DHT22;9493;51.884;5.188;2023-05-07T05:11:27;14.20;99.90
18729;DHT22;9493;51.884;5.188;2023-05-07T05:13:54;14.20;99.90
18729;DHT22;9493;51.884;5.188;2023-05-07T05:16:21;14.30;99.90
18729;DHT22;9493;51.884;5.188;2023-05-07T05:18:48;14.20;99.90
18729;DHT22;9493;51.884;5.188;2023-05-07T05:21:14;14.30;99.90
18729;DHT22;9493;51.884;5.188;2023-05-07T05:23:42;14.30;99.90
18729;DHT22;9493;51.884;5.188;2023-05-07T05:26:09;14.30;99.90
18729;DHT22;9493;51.884;5.188;2023-05-07T05:28:36;14.30;99.90
18729;DHT22;9493;51.884;5.188;2023-05-07T05:31:03;14.40;99.90
18729;DHT22;9493;51.884;5.188;2023-05-07T05:33:29;14.40;99.90
18729;DHT22;9493;51.884;5.188;2023-05-07T05:35:56;14.30;99.90
18729;DHT22;9493;51.884;5.188;2023-05-07T05:38:23;14.40;99.90
18729;DHT22;9493;51.884;5.188;2023-05-07T05:40:51;14.40;99.90
18729;DHT22;9493;51.884;5.188;2023-05-07T05:43:18;14.40;99.90
18729;DHT22;9493;51.884;5.188;2023-05-07T05:45:45;14.40;99.90
18729;DHT22;9493;51.884;5.188;2023-05-07T05:48:12;14.60;99.90
18729;DHT22;9493;51.884;5.188;2023-05-07T05:50:38;14.40;99.90
18729;DHT22;9493;51.884;5.188;2023-05-07T05:53:05;14.50;99.90
18729;DHT22;9493;51.884;5.188;2023-05-07T05:55:32;14.50;99.90
18729;DHT22;9493;51.884;5.188;2023-05-07T05:58:00;14.50;99.90
18729;DHT22;9493;51.884;5.188;2023-05-07T06:00:27;14.60;99.90
18729;DHT22;9493;51.884;5.188;2023-05-07T06:02:54;14.60;99.90
18729;DHT22;9493;51.884;5.188;2023-05-07T06:05:21;14.60;99.90
18729;DHT22;9493;51.884;5.188;2023-05-07T06:07:48;14.70;99.90
18729;DHT22;9493;51.884;5.188;2023-05-07T06:10:15;14.70;99.90
18729;DHT22;9493;51.884;5.188;2023-05-07T06:12:41;14.70;99.90
18729;DHT22;9493;51.884;5.188;2023-05-07T06:15:10;14.80;99.90
18729;DHT22;9493;51.884;5.188;2023-05-07T06:17:37;14.90;99.90
18729;DHT22;9493;51.884;5.188;2023-05-07T06:20:05;14.90;99.90
18729;DHT22;9493;51.884;5.188;2023-05-07T06:22:32;15.00;99.90
18729;DHT22;9493;51.884;5.188;2023-05-07T06:24:58;15.10;99.90
18729;DHT22;9493;51.884;5.188;2023-05-07T06:27:25;15.00;99.90
18729;DHT22;9493;51.884;5.188;2023-05-07T06:29:53;15.10;99.90
18729;DHT22;9493;51.884;5.188;2023-05-07T06:32:21;15.00;99.90
18729;DHT22;9493;51.884;5.188;2023-05-07T06:34:48;15.20;99.90
18729;DHT22;9493;51.884;5.188;2023-05-07T06:37:15;15.20;99.90
18729;DHT22;9493;51.884;5.188;2023-05-07T06:39:41;15.10;99.90
18729;DHT22;9493;51.884;5.188;2023-05-07T06:42:08;15.20;99.90
18729;DHT22;9493;51.884;5.188;2023-05-07T06:44:35;15.20;99.90
18729;DHT22;9493;51.884;5.188;2023-05-07T06:47:02;15.20;99.90
18729;DHT22;9493;51.884;5.188;2023-05-07T06:49:30;15.40;99.90
18729;DHT22;9493;51.884;5.188;2023-05-07T06:51:56;15.30;99.90
18729;DHT22;9493;51.884;5.188;2023-05-07T06:54:23;15.20;99.90
18729;DHT22;9493;51.884;5.188;2023-05-07T06:56:50;15.20;99.90
18729;DHT22;9493;51.884;5.188;2023-05-07T06:59:17;15.10;99.90
18729;DHT22;9493;51.884;5.188;2023-05-07T07:01:44;15.10;99.90
18729;DHT22;9493;51.884;5.188;2023-05-07T07:04:11;15.10;99.90
18729;DHT22;9493;51.884;5.188;2023-05-07T07:06:39;15.10;99.90
18729;DHT22;9493;51.884;5.188;2023-05-07T07:09:06;15.10;99.90
18729;DHT22;9493;51.884;5.188;2023-05-07T07:11:33;15.10;99.90
18729;DHT22;9493;51.884;5.188;2023-05-07T07:13:59;15.10;99.90
18729;DHT22;9493;51.884;5.188;2023-05-07T07:16:26;15.10;99.90
18729;DHT22;9493;51.884;5.188;2023-05-07T07:18:53;15.20;99.90
18729;DHT22;9493;51.884;5.188;2023-05-07T07:21:20;15.20;99.90
18729;DHT22;9493;51.884;5.188;2023-05-07T07:23:48;15.40;99.90
18729;DHT22;9493;51.884;5.188;2023-05-07T07:26:15;15.60;99.90
18729;DHT22;9493;51.884;5.188;2023-05-07T07:28:44;15.60;99.90
18729;DHT22;9493;51.884;5.188;2023-05-07T07:31:12;15.80;99.90
18729;DHT22;9493;51.884;5.188;2023-05-07T07:33:38;15.90;99.90
18729;DHT22;9493;51.884;5.188;2023-05-07T07:36:06;15.90;99.90
18729;DHT22;9493;51.884;5.188;2023-05-07T07:38:33;15.80;99.90
18729;DHT22;9493;51.884;5.188;2023-05-07T07:41:02;15.90;99.90
18729;DHT22;9493;51.884;5.188;2023-05-07T07:43:28;16.00;99.90
18729;DHT22;9493;51.884;5.188;2023-05-07T07:45:55;16.30;99.90
18729;DHT22;9493;51.884;5.188;2023-05-07T07:48:22;16.40;99.90
18729;DHT22;9493;51.884;5.188;2023-05-07T07:50:49;16.50;99.90
18729;DHT22;9493;51.884;5.188;2023-05-07T07:53:16;16.70;99.90
18729;DHT22;9493;51.884;5.188;2023-05-07T07:55:43;17.00;99.90
18729;DHT22;9493;51.884;5.188;2023-05-07T07:58:11;17.00;99.90
18729;DHT22;9493;51.884;5.188;2023-05-07T08:00:38;17.30;99.90
18729;DHT22;9493;51.884;5.188;2023-05-07T08:03:05;17.30;99.90
18729;DHT22;9493;51.884;5.188;2023-05-07T08:05:32;17.40;99.90
18729;DHT22;9493;51.884;5.188;2023-05-07T08:07:59;17.30;99.90
18729;DHT22;9493;51.884;5.188;2023-05-07T08:10:26;17.10;99.90
18729;DHT22;9493;51.884;5.188;2023-05-07T08:12:53;17.20;99.90
18729;DHT22;9493;51.884;5.188;2023-05-07T08:15:21;17.20;99.90
18729;DHT22;9493;51.884;5.188;2023-05-07T08:17:48;17.50;99.90
18729;DHT22;9493;51.884;5.188;2023-05-07T08:20:14;17.60;99.90
18729;DHT22;9493;51.884;5.188;2023-05-07T08:22:41;17.60;99.90
18729;DHT22;9493;51.884;5.188;2023-05-07T08:25:08;17.80;99.90
18729;DHT22;9493;51.884;5.188;2023-05-07T08:27:35;17.60;99.90
18729;DHT22;9493;51.884;5.188;2023-05-07T08:30:03;17.90;99.90
18729;DHT22;9493;51.884;5.188;2023-05-07T08:32:31;17.90;99.90
18729;DHT22;9493;51.884;5.188;2023-05-07T08:34:58;18.10;99.90
18729;DHT22;9493;51.884;5.188;2023-05-07T08:37:24;18.40;99.90
18729;DHT22;9493;51.884;5.188;2023-05-07T08:39:51;18.60;99.90
18729;DHT22;9493;51.884;5.188;2023-05-07T08:42:18;19.10;99.90
18729;DHT22;9493;51.884;5.188;2023-05-07T08:44:47;19.20;99.90
18729;DHT22;9493;51.884;5.188;2023-05-07T08:47:14;19.30;99.90
18729;DHT22;9493;51.884;5.188;2023-05-07T08:49:44;19.50;99.90
18729;DHT22;9493;51.884;5.188;2023-05-07T08:52:11;19.50;99.90
18729;DHT22;9493;51.884;5.188;2023-05-07T08:54:38;19.60;99.90
18729;DHT22;9493;51.884;5.188;2023-05-07T08:57:05;19.60;99.90
18729;DHT22;9493;51.884;5.188;2023-05-07T08:59:32;19.80;99.90
18729;DHT22;9493;51.884;5.188;2023-05-07T09:01:59;20.00;99.90
18729;DHT22;9493;51.884;5.188;2023-05-07T09:04:26;19.90;99.90
18729;DHT22;9493;51.884;5.188;2023-05-07T09:06:55;20.00;99.90
18729;DHT22;9493;51.884;5.188;2023-05-07T09:09:22;19.80;99.90
18729;DHT22;9493;51.884;5.188;2023-05-07T09:11:48;19.80;99.90
18729;DHT22;9493;51.884;5.188;2023-05-07T09:14:24;20.20;99.90
18729;DHT22;9493;51.884;5.188;2023-05-07T09:16:52;20.50;99.90
18729;DHT22;9493;51.884;5.188;2023-05-07T09:19:22;21.10;99.90
18729;DHT22;9493;51.884;5.188;2023-05-07T09:21:49;21.60;99.90
18729;DHT22;9493;51.884;5.188;2023-05-07T09:24:17;21.80;99.90
18729;DHT22;9493;51.884;5.188;2023-05-07T09:26:44;21.70;99.90
18729;DHT22;9493;51.884;5.188;2023-05-07T09:29:10;22.10;99.90
18729;DHT22;9493;51.884;5.188;2023-05-07T09:31:37;22.60;99.90
18729;DHT22;9493;51.884;5.188;2023-05-07T09:34:04;22.50;99.90
18729;DHT22;9493;51.884;5.188;2023-05-07T09:36:32;22.10;99.90
18729;DHT22;9493;51.884;5.188;2023-05-07T09:38:59;21.70;99.90
18729;DHT22;9493;51.884;5.188;2023-05-07T09:41:30;21.60;99.90
18729;DHT22;9493;51.884;5.188;2023-05-07T09:43:57;21.70;99.90
18729;DHT22;9493;51.884;5.188;2023-05-07T09:46:28;21.80;99.90
18729;DHT22;9493;51.884;5.188;2023-05-07T09:48:57;21.70;99.90
18729;DHT22;9493;51.884;5.188;2023-05-07T09:51:28;21.20;99.90
18729;DHT22;9493;51.884;5.188;2023-05-07T09:53:56;21.50;99.90
18729;DHT22;9493;51.884;5.188;2023-05-07T09:56:24;21.60;99.90
18729;DHT22;9493;51.884;5.188;2023-05-07T09:58:54;21.50;99.90
18729;DHT22;9493;51.884;5.188;2023-05-07T10:01:22;21.50;99.90
18729;DHT22;9493;51.884;5.188;2023-05-07T10:03:51;21.80;99.90
18729;DHT22;9493;51.884;5.188;2023-05-07T10:06:19;21.80;99.90
18729;DHT22;9493;51.884;5.188;2023-05-07T10:08:46;21.70;99.90
18729;DHT22;9493;51.884;5.188;2023-05-07T10:11:15;21.80;99.90
18729;DHT22;9493;51.884;5.188;2023-05-07T10:13:42;22.10;99.90
18729;DHT22;9493;51.884;5.188;2023-05-07T10:16:11;22.40;99.90
18729;DHT22;9493;51.884;5.188;2023-05-07T10:18:38;22.80;99.90
18729;DHT22;9493;51.884;5.188;2023-05-07T10:21:08;22.60;99.90
18729;DHT22;9493;51.884;5.188;2023-05-07T10:23:36;22.20;99.90
18729;DHT22;9493;51.884;5.188;2023-05-07T10:26:07;22.30;99.90
18729;DHT22;9493;51.884;5.188;2023-05-07T10:28:38;22.40;99.90
18729;DHT22;9493;51.884;5.188;2023-05-07T10:31:18;22.80;99.90
18729;DHT22;9493;51.884;5.188;2023-05-07T10:33:48;22.70;99.90
18729;DHT22;9493;51.884;5.188;2023-05-07T10:36:17;22.70;99.90
18729;DHT22;9493;51.884;5.188;2023-05-07T10:38:45;22.20;99.90
18729;DHT22;9493;51.884;5.188;2023-05-07T10:41:12;22.20;99.90
18729;DHT22;9493;51.884;5.188;2023-05-07T10:43:41;22.10;99.90
18729;DHT22;9493;51.884;5.188;2023-05-07T10:46:16;22.20;99.90
18729;DHT22;9493;51.884;5.188;2023-05-07T10:49:06;22.00;99.90
18729;DHT22;9493;51.884;5.188;2023-05-07T10:51:33;21.90;99.90
18729;DHT22;9493;51.884;5.188;2023-05-07T10:54:19;21.60;99.90
18729;DHT22;9493;51.884;5.188;2023-05-07T10:56:46;21.90;99.90
18729;DHT22;9493;51.884;5.188;2023-05-07T10:59:35;22.30;99.90
18729;DHT22;9493;51.884;5.188;2023-05-07T11:02:08;22.90;99.90
18729;DHT22;9493;51.884;5.188;2023-05-07T11:04:36;22.90;99.90
18729;DHT22;9493;51.884;5.188;2023-05-07T11:07:27;23.20;99.90
18729;DHT22;9493;51.884;5.188;2023-05-07T11:09:58;23.00;99.90
18729;DHT22;9493;51.884;5.188;2023-05-07T11:12:54;23.40;99.90
18729;DHT22;9493;51.884;5.188;2023-05-07T11:15:35;23.00;99.90
18729;DHT22;9493;51.884;5.188;2023-05-07T11:18:04;23.50;99.90
18729;DHT22;9493;51.884;5.188;2023-05-07T11:20:54;23.20;99.90
18729;DHT22;9493;51.884;5.188;2023-05-07T11:23:55;22.70;99.90
18729;DHT22;9493;51.884;5.188;2023-05-07T11:26:27;23.40;99.90
18729;DHT22;9493;51.884;5.188;2023-05-07T11:28:54;24.20;99.90
18729;DHT22;9493;51.884;5.188;2023-05-07T11:31:23;24.50;99.90
18729;DHT22;9493;51.884;5.188;2023-05-07T11:33:52;24.90;99.90
18729;DHT22;9493;51.884;5.188;2023-05-07T11:36:21;24.30;99.90
18729;DHT22;9493;51.884;5.188;2023-05-07T11:38:48;24.40;99.90
18729;DHT22;9493;51.884;5.188;2023-05-07T11:41:16;24.00;99.90
18729;DHT22;9493;51.884;5.188;2023-05-07T11:43:55;24.10;99.90
18729;DHT22;9493;51.884;5.188;2023-05-07T11:46:22;23.90;99.90
18729;DHT22;9493;51.884;5.188;2023-05-07T11:48:49;24.00;99.90
18729;DHT22;9493;51.884;5.188;2023-05-07T11:51:21;23.80;99.90
18729;DHT22;9493;51.884;5.188;2023-05-07T11:53:48;24.30;99.90
18729;DHT22;9493;51.884;5.188;2023-05-07T11:56:16;24.40;99.90
18729;DHT22;9493;51.884;5.188;2023-05-07T11:58:45;24.20;99.90
18729;DHT22;9493;51.884;5.188;2023-05-07T12:01:13;24.80;99.90
18729;DHT22;9493;51.884;5.188;2023-05-07T12:03:42;24.60;99.90
18729;DHT22;9493;51.884;5.188;2023-05-07T12:06:10;23.60;99.90
18729;DHT22;9493;51.884;5.188;2023-05-07T12:08:40;23.40;99.90
18729;DHT22;9493;51.884;5.188;2023-05-07T12:11:08;23.60;99.90
18729;DHT22;9493;51.884;5.188;2023-05-07T12:13:37;23.20;99.90
18729;DHT22;9493;51.884;5.188;2023-05-07T12:16:05;23.50;99.90
18729;DHT22;9493;51.884;5.188;2023-05-07T12:18:32;23.50;99.90
18729;DHT22;9493;51.884;5.188;2023-05-07T12:20:59;23.10;99.90
18729;DHT22;9493;51.884;5.188;2023-05-07T12:23:26;23.20;99.90
18729;DHT22;9493;51.884;5.188;2023-05-07T12:25:54;23.10;99.90
18729;DHT22;9493;51.884;5.188;2023-05-07T12:28:21;22.90;99.90
18729;DHT22;9493;51.884;5.188;2023-05-07T12:30:50;23.60;99.90
18729;DHT22;9493;51.884;5.188;2023-05-07T12:33:17;24.10;99.90
18729;DHT22;9493;51.884;5.188;2023-05-07T12:35:47;23.30;99.90
18729;DHT22;9493;51.884;5.188;2023-05-07T12:38:16;23.00;99.90
18729;DHT22;9493;51.884;5.188;2023-05-07T12:40:44;22.90;99.90
18729;DHT22;9493;51.884;5.188;2023-05-07T12:43:17;23.20;99.90
18729;DHT22;9493;51.884;5.188;2023-05-07T12:45:45;23.00;99.90
18729;DHT22;9493;51.884;5.188;2023-05-07T12:48:13;23.30;99.90
18729;DHT22;9493;51.884;5.188;2023-05-07T12:50:39;23.60;99.90
18729;DHT22;9493;51.884;5.188;2023-05-07T12:53:07;23.10;99.90
18729;DHT22;9493;51.884;5.188;2023-05-07T12:55:41;22.80;99.90
18729;DHT22;9493;51.884;5.188;2023-05-07T12:58:14;22.20;99.90
18729;DHT22;9493;51.884;5.188;2023-05-07T13:00:44;22.60;99.90
18729;DHT22;9493;51.884;5.188;2023-05-07T13:03:11;22.50;99.90
18729;DHT22;9493;51.884;5.188;2023-05-07T13:05:39;22.40;99.90
18729;DHT22;9493;51.884;5.188;2023-05-07T13:08:06;22.20;99.90
18729;DHT22;9493;51.884;5.188;2023-05-07T13:10:35;22.20;99.90
18729;DHT22;9493;51.884;5.188;2023-05-07T13:13:01;22.30;99.90
18729;DHT22;9493;51.884;5.188;2023-05-07T13:15:29;22.50;99.90
18729;DHT22;9493;51.884;5.188;2023-05-07T13:17:57;22.50;99.90
18729;DHT22;9493;51.884;5.188;2023-05-07T13:20:24;22.50;99.90
18729;DHT22;9493;51.884;5.188;2023-05-07T13:22:50;22.40;99.90
18729;DHT22;9493;51.884;5.188;2023-05-07T13:25:17;22.50;99.90
18729;DHT22;9493;51.884;5.188;2023-05-07T13:27:44;22.50;99.90
18729;DHT22;9493;51.884;5.188;2023-05-07T13:30:11;22.50;99.90
18729;DHT22;9493;51.884;5.188;2023-05-07T13:32:38;22.10;99.90
18729;DHT22;9493;51.884;5.188;2023-05-07T13:35:07;22.30;99.90
18729;DHT22;9493;51.884;5.188;2023-05-07T13:37:34;22.50;99.90
18729;DHT22;9493;51.884;5.188;2023-05-07T13:40:01;22.20;99.90
18729;DHT22;9493;51.884;5.188;2023-05-07T13:42:28;22.50;99.90
18729;DHT22;9493;51.884;5.188;2023-05-07T13:44:56;22.70;99.90
18729;DHT22;9493;51.884;5.188;2023-05-07T13:47:23;22.90;99.90
18729;DHT22;9493;51.884;5.188;2023-05-07T13:49:50;22.70;99.90
18729;DHT22;9493;51.884;5.188;2023-05-07T13:52:19;23.00;99.90
18729;DHT22;9493;51.884;5.188;2023-05-07T13:54:46;23.10;99.90
18729;DHT22;9493;51.884;5.188;2023-05-07T13:57:13;22.90;99.90
18729;DHT22;9493;51.884;5.188;2023-05-07T13:59:40;22.50;99.90
18729;DHT22;9493;51.884;5.188;2023-05-07T14:02:07;22.50;99.90
18729;DHT22;9493;51.884;5.188;2023-05-07T14:04:34;22.70;99.90
18729;DHT22;9493;51.884;5.188;2023-05-07T14:07:01;22.70;99.90
18729;DHT22;9493;51.884;5.188;2023-05-07T14:09:29;22.80;99.90
18729;DHT22;9493;51.884;5.188;2023-05-07T14:11:56;22.90;99.90
18729;DHT22;9493;51.884;5.188;2023-05-07T14:14:23;22.40;99.90
18729;DHT22;9493;51.884;5.188;2023-05-07T14:16:50;22.30;99.90
18729;DHT22;9493;51.884;5.188;2023-05-07T14:19:16;22.60;99.90
18729;DHT22;9493;51.884;5.188;2023-05-07T14:21:43;22.70;99.90
18729;DHT22;9493;51.884;5.188;2023-05-07T14:24:10;22.50;99.90
18729;DHT22;9493;51.884;5.188;2023-05-07T14:26:38;22.50;99.90
18729;DHT22;9493;51.884;5.188;2023-05-07T14:29:05;22.40;99.90
18729;DHT22;9493;51.884;5.188;2023-05-07T14:31:31;22.40;99.90
18729;DHT22;9493;51.884;5.188;2023-05-07T14:33:59;22.60;99.90
18729;DHT22;9493;51.884;5.188;2023-05-07T14:36:26;22.50;99.90
18729;DHT22;9493;51.884;5.188;2023-05-07T14:38:53;22.50;99.90
18729;DHT22;9493;51.884;5.188;2023-05-07T14:41:20;22.40;99.90
18729;DHT22;9493;51.884;5.188;2023-05-07T14:43:48;22.10;99.90
18729;DHT22;9493;51.884;5.188;2023-05-07T14:46:22;21.90;99.90
18729;DHT22;9493;51.884;5.188;2023-05-07T14:48:51;21.80;99.90
18729;DHT22;9493;51.884;5.188;2023-05-07T14:51:19;21.60;99.90
18729;DHT22;9493;51.884;5.188;2023-05-07T14:53:47;21.70;99.90
18729;DHT22;9493;51.884;5.188;2023-05-07T14:56:13;21.60;99.90
18729;DHT22;9493;51.884;5.188;2023-05-07T14:58:40;21.30;99.90
18729;DHT22;9493;51.884;5.188;2023-05-07T15:01:08;21.30;99.90
18729;DHT22;9493;51.884;5.188;2023-05-07T15:03:35;21.10;99.90
18729;DHT22;9493;51.884;5.188;2023-05-07T15:06:02;21.10;99.90
18729;DHT22;9493;51.884;5.188;2023-05-07T15:08:29;20.90;99.90
18729;DHT22;9493;51.884;5.188;2023-05-07T15:10:56;20.80;99.90
18729;DHT22;9493;51.884;5.188;2023-05-07T15:13:23;20.70;99.90
18729;DHT22;9493;51.884;5.188;2023-05-07T15:15:50;20.40;99.90
18729;DHT22;9493;51.884;5.188;2023-05-07T15:18:18;20.20;99.90
18729;DHT22;9493;51.884;5.188;2023-05-07T15:20:45;20.30;99.90
18729;DHT22;9493;51.884;5.188;2023-05-07T15:23:12;20.10;99.90
18729;DHT22;9493;51.884;5.188;2023-05-07T15:25:39;20.00;99.90
18729;DHT22;9493;51.884;5.188;2023-05-07T15:28:06;20.00;99.90
18729;DHT22;9493;51.884;5.188;2023-05-07T15:30:33;20.00;99.90
18729;DHT22;9493;51.884;5.188;2023-05-07T15:33:01;19.80;99.90
18729;DHT22;9493;51.884;5.188;2023-05-07T15:35:29;19.60;99.90
18729;DHT22;9493;51.884;5.188;2023-05-07T15:37:56;19.50;99.90
18729;DHT22;9493;51.884;5.188;2023-05-07T15:40:23;19.50;99.90
18729;DHT22;9493;51.884;5.188;2023-05-07T15:42:54;19.40;99.90
18729;DHT22;9493;51.884;5.188;2023-05-07T15:45:21;19.40;99.90
18729;DHT22;9493;51.884;5.188;2023-05-07T15:47:48;19.60;99.90
18729;DHT22;9493;51.884;5.188;2023-05-07T15:50:14;19.70;99.90